Time;durP1;ratioP1;P1;durP2;ratioP2;P2;SDS_P1;SDS_P2;PMS_P1;PMS_P2;Temp;Humidity;BMP_temperature;BMP_pressure;BME280_temperature;BME280_humidity;BME280_pressure;Samples;Min_cycle;Max_cycle;Signal;HPM_P1;HPM_P2
2020/12/26 00:00:01;;;;;;;6.20;5.57;;;6.20;67.90;;;;;;2072496;28;20095;-64
2020/12/26 00:01:11;;;;;;;5.78;5.05;;;6.20;67.90;;;;;;2074125;28;20037;-64
2020/12/26 00:02:11;;;;;;;;;;;6.20;68.00;;;;;;2078828;28;20034;-64
2020/12/26 00:03:12;;;;;;;7.78;5.35;;;6.20;68.20;;;;;;2080530;28;19909;-64
2020/12/26 00:04:12;;;;;;;11.82;5.50;;;6.20;67.70;;;;;;2080317;28;20399;-64
2020/12/26 00:05:13;;;;;;;9.38;5.78;;;6.20;67.70;;;;;;2080502;28;20351;-64
2020/12/26 00:06:18;;;;;;;7.45;6.22;;;6.20;67.70;;;;;;2079922;28;20009;-64
2020/12/26 00:07:19;;;;;;;6.47;5.75;;;6.30;67.70;;;;;;2080576;28;20495;-64
2020/12/26 00:08:19;;;;;;;8.50;6.35;;;6.30;67.70;;;;;;2080455;28;20025;-64
2020/12/26 00:09:21;;;;;;;9.48;5.80;;;6.20;67.80;;;;;;2080638;28;20025;-64
2020/12/26 00:10:22;;;;;;;7.07;5.80;;;6.20;67.80;;;;;;2079732;28;20041;-64
2020/12/26 00:11:23;;;;;;;8.25;6.32;;;6.30;67.90;;;;;;2080199;28;20078;-64
2020/12/26 00:12:24;;;;;;;6.95;6.07;;;6.30;67.90;;;;;;2080701;28;20120;-64
2020/12/26 00:13:24;;;;;;;7.57;5.90;;;6.30;67.90;;;;;;2079731;28;20557;-64
2020/12/26 00:14:28;;;;;;;9.05;5.47;;;6.30;68.00;;;;;;2079966;28;20098;-64
2020/12/26 00:15:28;;;;;;;8.02;6.20;;;6.30;68.10;;;;;;2080265;28;20033;-64
2020/12/26 00:16:29;;;;;;;6.47;5.80;;;6.30;68.10;;;;;;2079453;28;20085;-63
2020/12/26 00:17:30;;;;;;;9.82;6.22;;;6.30;68.10;;;;;;2080531;28;20041;-65
2020/12/26 00:18:30;;;;;;;8.77;6.22;;;6.30;68.10;;;;;;2080558;28;20383;-63
2020/12/26 00:19:31;;;;;;;9.50;5.80;;;6.30;68.10;;;;;;2080097;28;20164;-63
2020/12/26 00:20:31;;;;;;;6.57;5.97;;;6.30;68.10;;;;;;2080369;28;20653;-63
2020/12/26 00:21:32;;;;;;;7.60;6.20;;;6.30;68.10;;;;;;2079940;28;20033;-64
2020/12/26 00:22:36;;;;;;;7.57;5.93;;;6.30;68.20;;;;;;2080244;28;20029;-63
2020/12/26 00:23:36;;;;;;;9.75;6.45;;;6.30;68.20;;;;;;2079880;28;20579;-63
2020/12/26 00:24:37;;;;;;;7.97;6.10;;;6.30;68.10;;;;;;2080194;28;20096;-63
2020/12/26 00:25:40;;;;;;;6.18;5.57;;;6.30;68.10;;;;;;2079988;28;20452;-64
2020/12/26 00:26:41;;;;;;;9.07;6.05;;;6.40;68.20;;;;;;2080017;28;20582;-63
2020/12/26 00:27:42;;;;;;;9.65;6.45;;;6.40;68.20;;;;;;2079776;28;20043;-63
2020/12/26 00:28:43;;;;;;;9.68;6.43;;;6.40;68.20;;;;;;2068656;28;20042;-63
2020/12/26 00:29:44;;;;;;;7.35;6.18;;;6.40;68.20;;;;;;2069624;28;20112;-64
2020/12/26 00:30:44;;;;;;;8.05;6.40;;;6.40;68.20;;;;;;2079772;28;20017;-63
2020/12/26 00:31:47;;;;;;;7.57;6.28;;;6.40;68.20;;;;;;2079910;28;20501;-63
2020/12/26 00:32:47;;;;;;;9.02;6.57;;;6.40;68.20;;;;;;2079598;28;20032;-63
2020/12/26 00:33:48;;;;;;;8.60;6.38;;;6.40;68.20;;;;;;2080206;28;20371;-63
2020/12/26 00:34:49;;;;;;;7.65;6.40;;;6.40;68.20;;;;;;2080544;28;20409;-64
2020/12/26 00:35:49;;;;;;;8.05;6.45;;;6.40;68.20;;;;;;2080038;28;20052;-63
2020/12/26 00:36:50;;;;;;;8.90;6.35;;;6.40;68.10;;;;;;2080269;28;20030;-63
2020/12/26 00:37:52;;;;;;;7.00;5.82;;;6.40;68.10;;;;;;2079963;28;20029;-63
2020/12/26 00:38:52;;;;;;;9.98;6.63;;;6.50;68.10;;;;;;2080503;28;20337;-63
2020/12/26 00:39:53;;;;;;;7.82;6.38;;;6.40;68.10;;;;;;2079740;28;20129;-63
2020/12/26 00:40:53;;;;;;;7.90;7.00;;;6.40;68.00;;;;;;2079689;28;20034;-63
2020/12/26 00:41:54;;;;;;;8.90;6.55;;;6.40;67.90;;;;;;2080212;28;20030;-64
2020/12/26 00:42:54;;;;;;;11.18;6.22;;;6.40;67.90;;;;;;2079813;28;20156;-63
2020/12/26 00:43:55;;;;;;;7.97;6.97;;;6.40;67.90;;;;;;2080252;28;20041;-63
2020/12/26 00:44:56;;;;;;;10.40;6.82;;;6.40;67.80;;;;;;2072378;28;20034;-64
2020/12/26 00:45:56;;;;;;;7.65;6.47;;;6.50;67.80;;;;;;2071113;28;20466;-64
2020/12/26 00:46:57;;;;;;;8.77;6.53;;;6.40;67.80;;;;;;2079705;28;20348;-64
2020/12/26 00:47:57;;;;;;;8.63;6.65;;;6.40;67.80;;;;;;2080212;28;20049;-64
2020/12/26 00:48:58;;;;;;;9.15;6.50;;;6.40;67.80;;;;;;2071588;28;20053;-63
2020/12/26 00:49:58;;;;;;;9.30;6.28;;;6.40;67.80;;;;;;2071565;28;20044;-64
2020/12/26 00:50:59;;;;;;;8.50;6.53;;;6.40;67.90;;;;;;2080027;28;20048;-64
2020/12/26 00:51:59;;;;;;;9.27;6.57;;;6.40;67.90;;;;;;2079981;28;20052;-64
2020/12/26 00:53:00;;;;;;;8.40;6.93;;;6.40;67.80;;;;;;2079568;28;20046;-64
2020/12/26 00:54:01;;;;;;;9.95;7.25;;;6.40;67.80;;;;;;2079947;28;20093;-63
2020/12/26 00:55:02;;;;;;;8.05;6.60;;;6.40;67.90;;;;;;2079669;28;20030;-63
2020/12/26 00:56:03;;;;;;;7.90;7.00;;;6.40;67.90;;;;;;2080048;28;20042;-63
2020/12/26 00:57:03;;;;;;;8.75;6.78;;;6.40;67.90;;;;;;2079352;28;20164;-63
2020/12/26 00:58:04;;;;;;;9.88;7.00;;;6.40;67.90;;;;;;2080023;28;20095;-64
2020/12/26 00:59:04;;;;;;;7.45;6.65;;;6.40;67.90;;;;;;2069335;28;20457;-64
2020/12/26 01:00:05;;;;;;;8.02;6.32;;;6.40;67.90;;;;;;2068132;28;20511;-63
2020/12/26 01:01:06;;;;;;;9.18;6.65;;;6.40;67.90;;;;;;2070737;28;20577;-63
2020/12/26 01:02:06;;;;;;;8.38;6.47;;;6.40;67.90;;;;;;2071428;28;20036;-63
2020/12/26 01:03:07;;;;;;;7.53;6.43;;;6.40;67.90;;;;;;2079201;28;20017;-64
2020/12/26 01:04:07;;;;;;;9.23;6.60;;;6.40;67.90;;;;;;2080059;28;20073;-63
2020/12/26 01:05:08;;;;;;;9.88;7.40;;;6.30;67.80;;;;;;2069261;28;20013;-64
2020/12/26 01:06:13;;;;;;;10.25;6.53;;;6.40;67.90;;;;;;2070404;28;20511;-64
2020/12/26 01:07:14;;;;;;;9.52;6.70;;;6.40;67.90;;;;;;2081920;28;20464;-63
2020/12/26 01:08:14;;;;;;;8.48;6.47;;;6.40;67.80;;;;;;2081921;28;20064;-63
2020/12/26 01:09:15;;;;;;;7.35;6.65;;;6.40;67.80;;;;;;2080824;28;20025;-63
2020/12/26 01:10:15;;;;;;;8.63;7.28;;;6.30;67.70;;;;;;2080871;28;20041;-64
2020/12/26 01:11:16;;;;;;;9.25;6.65;;;6.40;67.70;;;;;;2072812;28;20448;-63
2020/12/26 01:12:17;;;;;;;8.80;6.32;;;6.40;67.70;;;;;;2072307;28;20064;-64
2020/12/26 01:13:18;;;;;;;8.35;6.82;;;6.30;67.60;;;;;;2081699;28;20044;-64
2020/12/26 01:14:18;;;;;;;9.60;7.57;;;6.40;67.70;;;;;;2081752;28;20033;-64
2020/12/26 01:15:19;;;;;;;9.68;7.18;;;6.30;67.60;;;;;;2081039;28;20025;-63
2020/12/26 01:16:19;;;;;;;7.47;6.50;;;6.30;67.50;;;;;;2080289;28;20029;-63
2020/12/26 01:17:20;;;;;;;9.07;7.38;;;6.30;67.50;;;;;;2081383;28;20018;-63
2020/12/26 01:18:21;;;;;;;10.23;6.97;;;6.30;67.60;;;;;;2080836;28;20025;-63
2020/12/26 01:19:21;;;;;;;8.30;7.05;;;6.30;67.60;;;;;;2081614;28;20152;-63
2020/12/26 01:20:22;;;;;;;8.43;7.38;;;6.30;67.60;;;;;;2081106;28;20037;-64
2020/12/26 01:21:22;;;;;;;8.23;7.38;;;6.30;67.60;;;;;;2081893;28;20119;-63
2020/12/26 01:22:23;;;;;;;9.75;6.75;;;6.30;67.60;;;;;;2081950;28;20116;-64
2020/12/26 01:23:24;;;;;;;11.15;7.43;;;6.20;67.60;;;;;;2081377;28;20028;-64
2020/12/26 01:24:24;;;;;;;9.02;7.45;;;6.20;67.60;;;;;;2070951;28;20070;-64
2020/12/26 01:25:25;;;;;;;9.60;7.22;;;6.20;67.60;;;;;;2070223;28;20662;-64
2020/12/26 01:26:26;;;;;;;7.65;6.75;;;6.20;67.70;;;;;;2082085;28;20095;-64
2020/12/26 01:27:26;;;;;;;8.32;6.95;;;6.20;68.40;;;;;;2082244;28;20032;-64
2020/12/26 01:28:27;;;;;;;9.55;7.68;;;6.20;67.70;;;;;;2072771;28;20475;-64
2020/12/26 01:29:28;;;;;;;12.75;7.55;;;6.20;67.80;;;;;;2072098;28;20053;-64
2020/12/26 01:30:28;;;;;;;8.73;7.40;;;6.20;67.80;;;;;;2081218;28;20060;-64
2020/12/26 01:31:29;;;;;;;10.50;7.75;;;6.20;67.80;;;;;;2080818;28;20108;-64
2020/12/26 01:32:29;;;;;;;8.88;7.22;;;6.10;67.70;;;;;;2081499;28;20034;-64
2020/12/26 01:33:30;;;;;;;8.07;7.22;;;6.20;67.80;;;;;;2081998;28;20025;-64
2020/12/26 01:34:31;;;;;;;8.82;7.85;;;6.10;67.70;;;;;;2081247;28;20057;-64
2020/12/26 01:35:31;;;;;;;7.95;6.90;;;6.20;67.80;;;;;;2081623;28;20104;-63
2020/12/26 01:36:32;;;;;;;7.60;6.90;;;6.20;67.80;;;;;;2081887;28;20064;-63
2020/12/26 01:37:32;;;;;;;11.35;8.10;;;6.10;67.70;;;;;;2081398;28;20025;-63
2020/12/26 01:38:33;;;;;;;8.52;6.72;;;6.10;67.80;;;;;;2081757;28;20423;-63
2020/12/26 01:39:33;;;;;;;10.55;7.30;;;6.10;67.80;;;;;;2081895;28;20041;-63
2020/12/26 01:40:35;;;;;;;8.57;6.80;;;6.10;67.90;;;;;;2081508;28;20116;-63
2020/12/26 01:41:36;;;;;;;10.43;7.93;;;6.10;67.90;;;;;;2082216;28;20112;-65
2020/12/26 01:42:38;;;;;;;10.23;7.80;;;6.10;68.20;;;;;;2072664;28;20080;-63
2020/12/26 01:43:39;;;;;;;8.68;7.45;;;6.10;68.00;;;;;;2073163;28;20109;-63
2020/12/26 01:44:39;;;;;;;8.93;7.47;;;6.10;68.00;;;;;;2072918;28;20021;-65
2020/12/26 01:45:41;;;;;;;9.57;7.70;;;6.10;68.10;;;;;;2072102;28;20107;-65
2020/12/26 01:46:42;;;;;;;9.82;7.28;;;6.10;68.10;;;;;;2080403;28;20021;-65
2020/12/26 01:47:43;;;;;;;10.07;7.50;;;6.10;68.20;;;;;;2081480;28;20383;-65
2020/12/26 01:48:44;;;;;;;13.30;8.35;;;6.10;68.20;;;;;;2081342;28;20033;-65
2020/12/26 01:49:45;;;;;;;12.32;8.27;;;6.10;68.30;;;;;;2081007;28;20352;-65
2020/12/26 01:50:46;;;;;;;9.10;7.57;;;6.10;68.30;;;;;;2081808;28;20080;-64
2020/12/26 01:51:47;;;;;;;9.00;6.95;;;6.10;68.40;;;;;;2081687;28;20037;-64
2020/12/26 01:52:50;;;;;;;10.65;8.07;;;6.10;68.40;;;;;;2081201;28;20661;-64
2020/12/26 01:53:52;;;;;;;7.88;7.13;;;6.10;69.10;;;;;;2082120;28;20025;-64
2020/12/26 01:54:54;;;;;;;8.55;7.07;;;6.10;68.50;;;;;;2081346;28;20036;-63
2020/12/26 01:55:54;;;;;;;10.25;7.50;;;6.10;68.50;;;;;;2081140;28;20034;-63
2020/12/26 01:56:56;;;;;;;8.85;7.60;;;6.10;68.50;;;;;;2072685;28;20113;-63
2020/12/26 01:57:59;;;;;;;10.77;7.90;;;6.10;68.60;;;;;;2072569;28;20030;-63
2020/12/26 01:58:59;;;;;;;10.45;8.27;;;6.20;68.60;;;;;;2080722;28;20040;-63
2020/12/26 02:00:03;;;;;;;10.93;7.90;;;6.20;68.70;;;;;;2081438;28;20017;-63
2020/12/26 02:01:04;;;;;;;9.00;7.35;;;6.20;68.70;;;;;;2080109;28;20034;-63
2020/12/26 02:02:08;;;;;;;9.23;7.57;;;6.20;68.70;;;;;;2081076;28;20032;-63
2020/12/26 02:03:10;;;;;;;8.80;8.00;;;6.20;68.80;;;;;;2080973;28;20443;-63
2020/12/26 02:04:11;;;;;;;10.23;7.60;;;6.20;68.70;;;;;;2081130;28;20067;-64
2020/12/26 02:05:14;;;;;;;10.48;7.60;;;6.20;68.70;;;;;;2081359;28;20014;-63
2020/12/26 02:06:14;;;;;;;8.35;7.28;;;6.20;68.70;;;;;;2081504;28;20022;-63
2020/12/26 02:07:15;;;;;;;10.15;8.20;;;6.20;68.70;;;;;;2081776;28;20506;-62
2020/12/26 02:08:15;;;;;;;8.98;7.53;;;6.20;68.70;;;;;;2081327;28;20025;-63
2020/12/26 02:09:16;;;;;;;10.50;8.00;;;6.30;68.70;;;;;;2081625;28;20051;-63
2020/12/26 02:10:17;;;;;;;9.52;8.20;;;6.30;68.70;;;;;;2080462;28;20466;-63
2020/12/26 02:11:17;;;;;;;9.68;7.30;;;6.30;68.70;;;;;;2081228;28;20096;-63
2020/12/26 02:12:18;;;;;;;10.23;7.90;;;6.30;68.60;;;;;;2080838;28;20101;-63
2020/12/26 02:13:19;;;;;;;10.60;8.30;;;6.30;68.60;;;;;;2080538;28;20101;-63
2020/12/26 02:14:20;;;;;;;9.52;8.23;;;6.30;68.60;;;;;;2081117;28;20025;-63
2020/12/26 02:15:20;;;;;;;8.75;7.93;;;6.30;68.60;;;;;;2081146;28;20033;-63
2020/12/26 02:16:21;;;;;;;10.63;8.65;;;6.30;68.60;;;;;;2079568;28;20021;-63
2020/12/26 02:17:26;;;;;;;13.02;8.55;;;6.40;68.60;;;;;;2080497;28;20045;-64
2020/12/26 02:18:26;;;;;;;9.27;7.90;;;6.30;68.60;;;;;;2081269;28;20029;-63
2020/12/26 02:19:27;;;;;;;8.93;7.75;;;6.40;68.60;;;;;;2080207;28;20475;-64
2020/12/26 02:20:27;;;;;;;9.88;8.45;;;6.40;68.60;;;;;;2081745;28;20038;-63
2020/12/26 02:21:28;;;;;;;13.48;9.18;;;6.40;68.60;;;;;;2076923;28;20030;-62
2020/12/26 02:22:29;;;;;;;12.30;8.38;;;6.40;68.40;;;;;;2076660;28;20527;-62
2020/12/26 02:23:30;;;;;;;11.02;8.43;;;6.40;68.40;;;;;;2081124;28;20021;-63
2020/12/26 02:24:30;;;;;;;9.35;8.30;;;6.40;68.40;;;;;;2080905;28;20029;-62
2020/12/26 02:25:31;;;;;;;12.65;8.77;;;6.40;68.40;;;;;;2080746;28;20048;-62
2020/12/26 02:26:32;;;;;;;9.50;8.50;;;6.40;68.40;;;;;;2072520;28;20037;-62
2020/12/26 02:27:32;;;;;;;9.35;8.00;;;6.40;68.40;;;;;;2072693;28;20044;-62
2020/12/26 02:28:33;;;;;;;10.02;8.38;;;6.40;68.40;;;;;;2080481;28;20116;-62
2020/12/26 02:29:33;;;;;;;10.57;8.60;;;6.40;68.50;;;;;;2080991;28;20033;-62
2020/12/26 02:30:34;;;;;;;12.73;9.48;;;6.40;68.50;;;;;;2080516;28;20025;-62
2020/12/26 02:31:35;;;;;;;12.93;9.48;;;6.50;68.50;;;;;;2080474;28;20108;-63
2020/12/26 02:32:36;;;;;;;10.40;8.98;;;6.40;68.50;;;;;;2080892;28;20037;-63
2020/12/26 02:33:36;;;;;;;10.35;8.80;;;6.50;68.50;;;;;;2080643;28;20116;-63
2020/12/26 02:34:37;;;;;;;14.65;9.10;;;6.50;68.50;;;;;;2081364;28;20029;-63
2020/12/26 02:35:38;;;;;;;12.32;8.93;;;6.50;68.50;;;;;;2081067;28;20448;-63
2020/12/26 02:36:39;;;;;;;11.93;8.50;;;6.50;68.50;;;;;;2080444;28;20455;-62
2020/12/26 02:37:39;;;;;;;10.40;8.90;;;6.50;68.50;;;;;;2080919;28;20018;-64
2020/12/26 02:38:40;;;;;;;9.68;8.55;;;6.50;68.50;;;;;;2080833;28;20468;-62
2020/12/26 02:39:41;;;;;;;13.38;9.38;;;6.50;68.50;;;;;;2080454;28;20036;-63
2020/12/26 02:40:42;;;;;;;9.20;8.25;;;6.50;68.50;;;;;;2081213;28;20414;-63
2020/12/26 02:41:42;;;;;;;10.63;9.45;;;6.50;68.50;;;;;;2071866;28;20464;-63
2020/12/26 02:42:44;;;;;;;10.10;9.02;;;6.50;68.50;;;;;;2072529;28;20524;-63
2020/12/26 02:43:44;;;;;;;11.00;9.77;;;6.60;68.50;;;;;;2079965;28;20017;-63
2020/12/26 02:44:45;;;;;;;10.60;9.30;;;6.50;68.30;;;;;;2081072;28;20392;-63
2020/12/26 02:45:46;;;;;;;12.63;9.13;;;6.50;68.30;;;;;;2080789;28;20048;-63
2020/12/26 02:46:50;;;;;;;12.32;9.27;;;6.50;68.30;;;;;;2080482;28;20543;-64
2020/12/26 02:47:51;;;;;;;9.50;8.35;;;6.60;68.40;;;;;;2080748;28;20061;-63
2020/12/26 02:48:51;;;;;;;12.75;9.73;;;6.60;68.40;;;;;;2080354;28;20756;-62
2020/12/26 02:49:52;;;;;;;11.23;9.13;;;6.60;68.40;;;;;;2080965;28;20018;-62
2020/12/26 02:50:53;;;;;;;10.45;8.90;;;6.60;68.40;;;;;;2080867;28;20452;-63
2020/12/26 02:51:54;;;;;;;10.48;9.35;;;6.50;68.30;;;;;;2081313;28;20052;-63
2020/12/26 02:52:54;;;;;;;12.32;8.98;;;6.60;68.40;;;;;;2080412;28;20014;-62
2020/12/26 02:53:55;;;;;;;12.07;8.63;;;6.60;68.40;;;;;;2080493;28;20045;-63
2020/12/26 02:54:55;;;;;;;11.38;8.88;;;6.60;68.40;;;;;;2080939;28;20088;-65
2020/12/26 02:55:56;;;;;;;10.98;8.60;;;6.60;68.50;;;;;;2072395;28;20022;-63
2020/12/26 02:56:56;;;;;;;10.93;9.23;;;6.60;68.50;;;;;;2072415;28;20014;-62
2020/12/26 02:57:57;;;;;;;12.07;9.50;;;6.60;68.50;;;;;;2081789;28;20041;-63
2020/12/26 02:58:58;;;;;;;11.15;8.73;;;6.60;68.50;;;;;;2079454;28;20040;-64
2020/12/26 02:59:58;;;;;;;13.02;9.10;;;6.60;68.50;;;;;;2081341;28;20672;-64
2020/12/26 03:00:59;;;;;;;10.90;9.32;;;6.60;68.50;;;;;;2080640;28;20554;-65
2020/12/26 03:02:00;;;;;;;12.40;9.52;;;6.60;68.50;;;;;;2080877;28;20398;-64
2020/12/26 03:03:00;;;;;;;10.75;8.65;;;6.70;68.50;;;;;;2080191;28;20482;-64
2020/12/26 03:04:01;;;;;;;15.98;9.90;;;6.60;68.40;;;;;;2080709;28;20051;-64
2020/12/26 03:05:01;;;;;;;11.65;9.07;;;6.70;68.50;;;;;;2080793;28;20038;-64
2020/12/26 03:06:02;;;;;;;10.50;8.88;;;6.70;68.40;;;;;;2080304;28;20395;-64
2020/12/26 03:07:03;;;;;;;11.48;8.43;;;6.70;69.10;;;;;;2081141;28;20804;-64
2020/12/26 03:08:03;;;;;;;11.77;9.27;;;6.70;68.40;;;;;;2080858;28;20029;-64
2020/12/26 03:09:04;;;;;;;10.30;8.82;;;6.70;68.50;;;;;;2081295;28;20079;-64
2020/12/26 03:10:05;;;;;;;12.98;9.15;;;6.70;68.50;;;;;;2080587;28;20048;-64
2020/12/26 03:11:06;;;;;;;10.07;8.38;;;6.70;68.40;;;;;;2080557;28;20064;-64
2020/12/26 03:12:06;;;;;;;13.55;8.50;;;6.70;68.40;;;;;;2081337;28;20033;-65
2020/12/26 03:13:07;;;;;;;8.55;7.55;;;6.70;68.40;;;;;;2080754;28;20021;-64
2020/12/26 03:14:08;;;;;;;11.60;8.20;;;6.70;68.40;;;;;;2080316;28;20025;-64
2020/12/26 03:15:08;;;;;;;11.13;8.50;;;6.70;68.40;;;;;;2080831;28;20025;-65
2020/12/26 03:16:09;;;;;;;14.50;8.73;;;6.70;68.40;;;;;;2079505;28;20029;-64
2020/12/26 03:17:09;;;;;;;11.73;8.48;;;6.80;68.40;;;;;;2080504;28;20029;-64
2020/12/26 03:18:10;;;;;;;11.45;8.38;;;6.70;68.40;;;;;;2080871;28;20026;-65
2020/12/26 03:19:10;;;;;;;9.40;8.23;;;6.80;68.40;;;;;;2080136;28;20067;-64
2020/12/26 03:20:11;;;;;;;12.52;8.20;;;6.80;68.40;;;;;;2080805;28;20026;-64
2020/12/26 03:21:12;;;;;;;12.20;8.52;;;6.80;68.50;;;;;;2081299;28;20480;-64
2020/12/26 03:22:13;;;;;;;14.68;8.40;;;6.80;68.40;;;;;;2080696;28;20017;-64
2020/12/26 03:23:13;;;;;;;9.55;8.45;;;6.80;68.40;;;;;;2080845;28;20498;-64
2020/12/26 03:24:14;;;;;;;10.07;8.85;;;6.80;68.40;;;;;;2081376;28;20022;-64
2020/12/26 03:25:14;;;;;;;9.50;8.10;;;6.80;68.40;;;;;;2080633;28;20774;-64
2020/12/26 03:26:15;;;;;;;11.02;8.48;;;6.80;68.40;;;;;;2080485;28;20363;-64
2020/12/26 03:27:16;;;;;;;12.20;8.05;;;6.80;68.40;;;;;;2080615;28;20087;-64
2020/12/26 03:28:16;;;;;;;10.75;8.55;;;6.80;68.40;;;;;;2080060;28;20075;-64
2020/12/26 03:29:17;;;;;;;11.48;8.57;;;6.80;68.40;;;;;;2079965;28;20032;-64
2020/12/26 03:30:17;;;;;;;10.02;8.75;;;6.90;68.50;;;;;;2080222;28;20025;-65
2020/12/26 03:31:18;;;;;;;11.40;7.90;;;6.90;68.50;;;;;;2079626;28;20037;-64
2020/12/26 03:32:19;;;;;;;11.40;8.48;;;6.90;68.50;;;;;;2080682;28;20116;-64
2020/12/26 03:33:20;;;;;;;10.70;7.85;;;6.90;68.40;;;;;;2080243;28;20036;-64
2020/12/26 03:34:20;;;;;;;9.00;8.02;;;6.90;68.40;;;;;;2080370;28;20044;-64
2020/12/26 03:35:21;;;;;;;11.10;8.00;;;6.90;68.50;;;;;;2081065;28;20032;-64
2020/12/26 03:36:21;;;;;;;10.00;8.10;;;6.90;68.40;;;;;;2080564;28;20025;-64
2020/12/26 03:37:22;;;;;;;10.15;8.32;;;6.90;68.40;;;;;;2080795;28;20064;-64
2020/12/26 03:38:23;;;;;;;11.05;8.57;;;6.90;68.40;;;;;;2080678;28;20032;-64
2020/12/26 03:39:23;;;;;;;11.35;8.15;;;6.90;68.30;;;;;;2079814;28;20076;-64
2020/12/26 03:40:24;;;;;;;10.90;8.75;;;7.00;68.40;;;;;;2080374;28;20037;-64
2020/12/26 03:41:24;;;;;;;12.13;8.13;;;7.00;68.40;;;;;;2080644;28;20022;-64
2020/12/26 03:42:25;;;;;;;11.35;8.65;;;7.00;68.40;;;;;;2080494;28;20099;-64
2020/12/26 03:43:25;;;;;;;11.75;8.80;;;7.00;68.40;;;;;;2079700;28;20033;-64
2020/12/26 03:44:26;;;;;;;8.80;7.90;;;7.00;68.40;;;;;;2080433;28;20029;-64
2020/12/26 03:45:27;;;;;;;8.63;7.65;;;7.00;68.40;;;;;;2079785;28;20037;-64
2020/12/26 03:46:27;;;;;;;10.98;8.07;;;7.00;68.40;;;;;;2079643;28;20041;-64
2020/12/26 03:47:28;;;;;;;10.40;8.60;;;7.00;68.40;;;;;;2080573;28;20029;-63
2020/12/26 03:48:28;;;;;;;10.27;8.75;;;7.00;68.40;;;;;;2080706;28;20104;-64
2020/12/26 03:49:29;;;;;;;9.75;8.65;;;7.00;68.40;;;;;;2080729;28;20088;-64
2020/12/26 03:50:29;;;;;;;9.45;8.43;;;7.00;68.30;;;;;;2080540;28;20026;-64
2020/12/26 03:51:30;;;;;;;10.93;8.35;;;7.00;68.30;;;;;;2080914;28;20025;-64
2020/12/26 03:52:31;;;;;;;10.32;8.30;;;7.00;68.30;;;;;;2080848;28;20048;-64
2020/12/26 03:53:31;;;;;;;9.57;8.57;;;7.00;68.30;;;;;;2080327;28;20048;-64
2020/12/26 03:54:32;;;;;;;9.10;7.90;;;7.00;68.30;;;;;;2080616;28;20037;-64
2020/12/26 03:55:32;;;;;;;9.82;8.63;;;7.00;68.30;;;;;;2080366;28;20129;-64
2020/12/26 03:56:33;;;;;;;9.25;8.35;;;7.10;68.40;;;;;;2080060;28;20104;-63
2020/12/26 03:57:33;;;;;;;10.70;8.32;;;7.10;68.40;;;;;;2060936;28;20023;-64
2020/12/26 03:58:34;;;;;;;13.05;8.43;;;7.10;68.30;;;;;;2060440;28;20034;-64
2020/12/26 03:59:34;;;;;;;10.93;7.63;;;7.10;68.30;;;;;;2079909;28;20097;-64
2020/12/26 04:00:35;;;;;;;9.43;8.35;;;7.10;68.30;;;;;;2080226;28;20032;-64
2020/12/26 04:01:36;;;;;;;9.90;8.90;;;7.10;68.30;;;;;;2079475;28;20028;-64
2020/12/26 04:02:36;;;;;;;9.57;8.57;;;7.10;68.20;;;;;;2069168;28;20030;-64
2020/12/26 04:03:37;;;;;;;10.95;8.55;;;7.10;68.20;;;;;;2069344;28;20037;-64
2020/12/26 04:04:38;;;;;;;11.77;8.48;;;7.10;68.20;;;;;;2080379;28;20060;-64
2020/12/26 04:05:39;;;;;;;13.38;9.35;;;7.10;68.20;;;;;;2080085;28;20454;-64
2020/12/26 04:06:43;;;;;;;8.82;7.95;;;7.10;68.10;;;;;;2079942;28;20064;-65
2020/12/26 04:07:43;;;;;;;14.00;9.35;;;7.10;68.10;;;;;;2080134;28;20152;-64
2020/12/26 04:08:44;;;;;;;11.95;9.15;;;7.10;68.10;;;;;;2080337;28;20033;-64
2020/12/26 04:09:45;;;;;;;10.73;9.05;;;7.10;68.10;;;;;;2079932;28;20387;-64
2020/12/26 04:10:45;;;;;;;9.73;8.57;;;7.10;68.10;;;;;;2079946;28;20033;-64
2020/12/26 04:11:46;;;;;;;11.73;9.40;;;7.10;68.10;;;;;;2080363;28;20412;-64
2020/12/26 04:12:47;;;;;;;9.43;8.50;;;7.10;68.10;;;;;;2079973;28;20600;-64
2020/12/26 04:13:48;;;;;;;10.25;8.25;;;7.10;68.00;;;;;;2079955;28;20087;-64
2020/12/26 04:14:48;;;;;;;10.75;8.57;;;7.10;68.00;;;;;;2080090;28;20037;-65
2020/12/26 04:15:49;;;;;;;10.85;8.85;;;7.10;68.00;;;;;;2078987;28;20037;-64
2020/12/26 04:16:57;;;;;;;9.73;7.03;;;7.10;68.00;;;;;;2079175;28;20033;-64
2020/12/26 04:17:58;;;;;;;12.48;9.30;;;7.10;68.10;;;;;;2071781;28;20036;-62
2020/12/26 04:18:59;;;;;;;10.45;8.70;;;7.10;68.10;;;;;;2072135;28;20885;-65
2020/12/26 04:19:59;;;;;;;9.68;8.55;;;7.10;68.10;;;;;;2071814;28;20026;-65
2020/12/26 04:21:00;;;;;;;11.77;8.90;;;7.10;68.10;;;;;;2072187;28;20018;-65
2020/12/26 04:22:01;;;;;;;9.00;8.10;;;7.10;68.10;;;;;;2080224;28;20033;-65
2020/12/26 04:23:01;;;;;;;10.88;8.32;;;7.10;68.10;;;;;;2079841;28;20017;-65
2020/12/26 04:24:02;;;;;;;9.48;8.48;;;7.10;68.20;;;;;;2080298;28;20053;-63
2020/12/26 04:25:02;;;;;;;10.95;8.80;;;7.10;68.20;;;;;;2080074;28;20083;-64
2020/12/26 04:26:07;;;;;;;12.65;8.00;;;7.10;68.10;;;;;;2079575;28;20029;-63
2020/12/26 04:27:08;;;;;;;10.07;8.50;;;7.10;68.20;;;;;;2080949;28;20033;-63
2020/12/26 04:28:09;;;;;;;10.52;8.23;;;7.10;68.20;;;;;;2080506;28;20037;-63
2020/12/26 04:29:10;;;;;;;8.90;7.93;;;7.10;68.20;;;;;;2080383;28;20092;-63
2020/12/26 04:30:11;;;;;;;8.57;7.53;;;7.10;68.20;;;;;;2078925;28;20042;-63
2020/12/26 04:31:12;;;;;;;9.40;8.40;;;7.20;68.20;;;;;;2079694;28;20048;-63
2020/12/26 04:32:12;;;;;;;10.77;8.57;;;7.20;68.20;;;;;;2071186;28;20021;-64
2020/12/26 04:33:13;;;;;;;9.45;8.23;;;7.20;68.30;;;;;;2072026;28;20018;-63
2020/12/26 04:34:14;;;;;;;9.57;8.18;;;7.20;68.20;;;;;;2080469;28;20100;-62
2020/12/26 04:35:16;;;;;;;12.38;8.35;;;7.20;68.20;;;;;;2079992;28;20115;-63
2020/12/26 04:36:17;;;;;;;9.25;8.35;;;7.20;68.20;;;;;;2080575;28;20432;-63
2020/12/26 04:37:17;;;;;;;10.43;8.30;;;7.20;68.20;;;;;;2080685;28;20022;-62
2020/12/26 04:38:18;;;;;;;8.48;7.68;;;7.20;68.20;;;;;;2080479;28;20096;-64
2020/12/26 04:39:19;;;;;;;9.63;8.35;;;7.20;68.10;;;;;;2071191;28;20029;-65
2020/12/26 04:40:21;;;;;;;9.75;8.77;;;7.10;68.00;;;;;;2071444;28;20420;-64
2020/12/26 04:41:22;;;;;;;10.32;8.63;;;7.20;68.10;;;;;;2080469;28;20021;-64
2020/12/26 04:42:23;;;;;;;10.18;8.43;;;7.20;68.00;;;;;;2081295;28;20049;-64
2020/12/26 04:43:24;;;;;;;9.40;8.13;;;7.10;68.00;;;;;;2071069;28;20145;-62
2020/12/26 04:44:26;;;;;;;12.30;9.18;;;7.20;68.10;;;;;;2071133;28;20050;-62
2020/12/26 04:45:27;;;;;;;10.57;8.77;;;7.20;68.10;;;;;;2072230;28;20091;-63
2020/12/26 04:46:28;;;;;;;11.32;9.10;;;7.20;68.10;;;;;;2079292;28;20117;-63
2020/12/26 04:47:54;;;;;;;11.30;9.45;;;7.10;68.10;;;;;;2079744;28;20124;-64
2020/12/26 04:49:06;;;;;;;10.38;9.07;;;7.20;68.30;;;;;;2080852;28;20037;-64
2020/12/26 04:50:07;;;;;;;13.50;9.27;;;7.20;68.30;;;;;;2080839;28;20088;-63
2020/12/26 04:51:14;;;;;;;12.77;9.35;;;7.20;68.20;;;;;;2079741;28;20452;-63
2020/12/26 04:52:16;;;;;;;11.80;9.32;;;7.20;68.30;;;;;;2080412;28;20407;-64
2020/12/26 04:53:19;;;;;;;11.55;9.98;;;7.20;68.20;;;;;;2080940;28;20460;-64
2020/12/26 04:54:24;;;;;;;14.32;10.82;;;7.10;68.20;;;;;;2079662;28;20508;-64
2020/12/26 04:55:33;;;;;;;11.50;9.85;;;7.20;68.30;;;;;;2081528;28;20029;-64
2020/12/26 04:56:43;;;;;;;13.63;10.80;;;7.20;68.30;;;;;;2080361;28;20029;-63
2020/12/26 04:57:47;;;;;;;14.07;10.00;;;7.10;68.30;;;;;;2079635;28;20360;-64
2020/12/26 04:58:48;;;;;;;11.98;9.45;;;7.20;69.00;;;;;;2080183;28;20038;-63
2020/12/26 04:59:50;;;;;;;11.73;10.10;;;7.20;68.30;;;;;;2080039;28;20344;-63
2020/12/26 05:00:50;;;;;;;12.15;9.95;;;7.20;68.30;;;;;;2079411;28;20045;-63
2020/12/26 05:01:51;;;;;;;12.45;11.00;;;7.20;68.30;;;;;;2067273;28;20034;-64
2020/12/26 05:02:55;;;;;;;11.38;10.13;;;7.20;68.30;;;;;;2068969;28;20169;-64
2020/12/26 05:04:00;;;;;;;13.68;10.30;;;7.20;68.30;;;;;;2080136;28;20036;-63
2020/12/26 05:05:03;;;;;;;12.30;10.98;;;7.20;68.30;;;;;;2079752;28;20029;-63
2020/12/26 05:06:05;;;;;;;13.77;11.30;;;7.20;68.30;;;;;;2080244;28;20033;-63
2020/12/26 05:07:06;;;;;;;13.23;11.30;;;7.20;68.30;;;;;;2079926;28;20026;-64
2020/12/26 05:08:14;;;;;;;14.27;10.85;;;7.20;68.20;;;;;;2080308;28;20486;-64
2020/12/26 05:09:16;;;;;;;12.18;10.90;;;7.20;68.20;;;;;;2071694;28;20021;-63
2020/12/26 05:10:16;;;;;;;12.95;11.27;;;7.20;68.20;;;;;;2071061;28;20100;-63
2020/12/26 05:11:20;;;;;;;15.30;11.02;;;7.20;68.10;;;;;;2079913;28;20037;-63
2020/12/26 05:12:20;;;;;;;13.70;11.07;;;7.20;68.20;;;;;;2080936;28;20480;-64
2020/12/26 05:13:21;;;;;;;13.45;11.15;;;7.20;68.10;;;;;;2079594;28;20117;-63
2020/12/26 05:14:23;;;;;;;14.18;10.60;;;7.20;68.10;;;;;;2079489;28;20043;-63
2020/12/26 05:15:23;;;;;;;16.70;11.00;;;7.20;68.10;;;;;;2079852;28;20113;-63
2020/12/26 05:16:24;;;;;;;14.30;11.10;;;7.10;68.00;;;;;;2078592;28;20044;-62
2020/12/26 05:17:25;;;;;;;15.57;11.07;;;7.10;68.00;;;;;;2079896;28;20636;-63
2020/12/26 05:18:25;;;;;;;14.43;11.07;;;7.10;68.00;;;;;;2080453;28;20363;-64
2020/12/26 05:19:26;;;;;;;15.45;11.73;;;7.10;68.00;;;;;;2071466;28;20026;-63